createdAt,value
2019-01-18T00:01:53.723Z,0.30
2019-01-18T00:04:23.431Z,0.10
2019-01-18T00:06:53.146Z,0.20
2019-01-18T00:09:22.826Z,0.20
2019-01-18T00:11:52.451Z,0.20
2019-01-18T00:14:22.181Z,0.40
2019-01-18T00:16:51.854Z,0.40
2019-01-18T00:19:21.537Z,0.30
2019-01-18T00:21:51.256Z,0.30
2019-01-18T00:24:20.989Z,0.37
2019-01-18T00:26:50.672Z,0.23
2019-01-18T00:29:20.395Z,0.20
2019-01-18T00:31:50.062Z,0.20
2019-01-18T00:34:19.746Z,0.30
2019-01-18T00:36:49.437Z,0.20
2019-01-18T00:39:19.110Z,0.30
2019-01-18T00:41:48.755Z,0.33
2019-01-18T00:44:18.460Z,0.37
2019-01-18T00:46:48.152Z,0.20
2019-01-18T00:49:17.869Z,0.20
2019-01-18T00:51:47.533Z,0.23
2019-01-18T00:54:17.316Z,0.20
2019-01-18T00:56:46.972Z,0.20
2019-01-18T00:59:16.636Z,0.10
2019-01-18T01:01:46.312Z,0.10
2019-01-18T01:04:15.914Z,0.30
2019-01-18T01:06:48.733Z,0.20
2019-01-18T01:09:18.392Z,0.03
2019-01-18T01:11:48.053Z,0.30
2019-01-18T01:14:17.746Z,0.00
2019-01-18T01:16:47.438Z,0.10
2019-01-18T01:19:17.095Z,0.30
2019-01-18T01:21:46.838Z,0.20
2019-01-18T01:24:16.558Z,0.83
2019-01-18T01:26:46.197Z,0.10
2019-01-18T01:29:15.881Z,0.20
2019-01-18T01:31:45.556Z,0.10
2019-01-18T01:34:16.183Z,0.10
2019-01-18T01:36:45.913Z,0.20
2019-01-18T01:39:15.579Z,0.20
2019-01-18T01:41:45.235Z,0.10
2019-01-18T01:44:14.920Z,0.10
2019-01-18T01:46:44.631Z,0.20
2019-01-18T01:49:14.337Z,0.17
2019-01-18T01:51:44.054Z,0.10
2019-01-18T01:54:13.731Z,0.10
2019-01-18T01:56:43.442Z,0.10
2019-01-18T01:59:13.082Z,0.17
2019-01-18T02:01:42.887Z,0.20
2019-01-18T02:04:12.540Z,0.23
2019-01-18T02:06:42.237Z,0.20
2019-01-18T02:09:11.863Z,0.30
2019-01-18T02:11:41.538Z,0.37
2019-01-18T02:14:11.178Z,0.40
2019-01-18T02:16:40.922Z,0.47
2019-01-18T02:19:10.525Z,0.33
2019-01-18T02:21:40.239Z,0.30
2019-01-18T02:24:09.852Z,0.43
2019-01-18T02:26:39.458Z,0.20
2019-01-18T02:29:09.175Z,0.30
2019-01-18T02:31:38.813Z,0.60
2019-01-18T02:34:08.569Z,0.93
2019-01-18T02:36:38.499Z,0.87
2019-01-18T02:39:09.264Z,0.73
2019-01-18T02:41:38.899Z,0.70
2019-01-18T02:44:08.692Z,0.60
2019-01-18T02:46:38.365Z,0.87
2019-01-18T02:49:08.086Z,0.70
2019-01-18T02:51:37.699Z,0.73
2019-01-18T02:54:07.567Z,0.80
2019-01-18T02:56:37.139Z,1.00
2019-01-18T02:59:06.844Z,0.90
2019-01-18T03:01:36.577Z,0.57
2019-01-18T03:04:06.263Z,0.40
2019-01-18T03:06:35.910Z,0.57
2019-01-18T03:09:09.520Z,0.30
2019-01-18T03:11:39.093Z,0.30
2019-01-18T03:14:08.866Z,0.40
2019-01-18T03:16:38.465Z,0.40
2019-01-18T03:19:08.236Z,0.30
2019-01-18T03:21:37.855Z,0.23
2019-01-18T03:24:07.760Z,0.20
2019-01-18T03:26:37.438Z,0.20
2019-01-18T03:29:07.336Z,0.60
2019-01-18T03:31:36.990Z,0.37
2019-01-18T03:34:06.926Z,0.23
2019-01-18T03:36:36.489Z,0.40
2019-01-18T03:39:10.447Z,0.20
2019-01-18T03:41:41.083Z,0.30
2019-01-18T03:44:10.727Z,0.30
2019-01-18T03:46:40.301Z,0.50
2019-01-18T03:49:09.903Z,0.30
2019-01-18T03:51:41.124Z,0.23
2019-01-18T03:54:10.878Z,0.40
2019-01-18T03:56:40.462Z,0.20
2019-01-18T03:59:10.026Z,0.30
2019-01-18T04:01:39.629Z,0.20
2019-01-18T04:04:09.225Z,0.37
2019-01-18T04:06:38.805Z,0.20
2019-01-18T04:09:09.117Z,0.20
2019-01-18T04:11:38.769Z,0.20
2019-01-18T04:14:08.597Z,0.20
2019-01-18T04:16:38.448Z,0.30
2019-01-18T04:19:08.195Z,0.20
2019-01-18T04:21:37.826Z,0.70
2019-01-18T04:24:07.595Z,0.20
2019-01-18T04:26:37.219Z,0.30
2019-01-18T04:29:07.044Z,0.10
2019-01-18T04:31:36.697Z,0.20
2019-01-18T04:34:06.527Z,0.20
2019-01-18T04:36:36.133Z,0.10
2019-01-18T04:39:08.523Z,0.30
2019-01-18T04:41:38.233Z,0.20
2019-01-18T04:44:07.936Z,0.10
2019-01-18T04:46:37.558Z,0.37
2019-01-18T04:49:07.378Z,0.30
2019-01-18T04:51:36.964Z,0.30
2019-01-18T04:54:06.718Z,0.10
2019-01-18T04:56:36.311Z,0.30
2019-01-18T04:59:05.911Z,0.20
2019-01-18T05:01:35.491Z,0.30
2019-01-18T05:04:05.320Z,0.20
2019-01-18T05:06:34.912Z,0.27
2019-01-18T05:09:06.562Z,0.20
2019-01-18T05:11:36.199Z,0.30
2019-01-18T05:14:05.905Z,0.20
2019-01-18T05:16:35.756Z,0.40
2019-01-18T05:19:05.676Z,0.30
2019-01-18T05:21:35.297Z,0.20
2019-01-18T05:24:05.168Z,0.13
2019-01-18T05:26:34.800Z,0.20
2019-01-18T05:29:04.461Z,0.20
2019-01-18T05:31:34.014Z,0.40
2019-01-18T05:34:03.798Z,0.50
2019-01-18T05:36:33.394Z,0.10
2019-01-18T05:39:02.999Z,0.20
2019-01-18T05:41:32.637Z,0.23
2019-01-18T05:44:02.288Z,0.17
2019-01-18T05:46:32.054Z,0.20
2019-01-18T05:49:01.710Z,0.37
2019-01-18T05:51:31.509Z,0.30
2019-01-18T05:54:01.082Z,0.40
2019-01-18T05:56:30.858Z,2.20
2019-01-18T05:59:00.472Z,0.40
2019-01-18T06:01:31.141Z,0.40
2019-01-18T06:04:00.779Z,0.73
2019-01-18T06:06:30.410Z,0.33
2019-01-18T06:09:00.029Z,0.40
2019-01-18T06:11:29.636Z,0.40
2019-01-18T06:13:59.221Z,0.50
2019-01-18T06:16:28.810Z,0.43
2019-01-18T06:18:58.475Z,0.60
2019-01-18T06:21:28.071Z,0.53
2019-01-18T06:23:57.914Z,0.50
2019-01-18T06:26:27.981Z,0.40
2019-01-18T06:28:57.565Z,0.63
2019-01-18T06:31:27.152Z,0.40
2019-01-18T06:33:56.740Z,0.40
2019-01-18T06:36:26.269Z,0.53
2019-01-18T06:38:55.853Z,0.30
2019-01-18T06:41:31.500Z,0.33
2019-01-18T06:44:01.091Z,0.23
2019-01-18T06:46:30.648Z,0.50
2019-01-18T06:49:00.732Z,0.50
2019-01-18T06:51:30.267Z,0.40
2019-01-18T06:53:59.875Z,0.50
2019-01-18T06:56:29.500Z,0.60
2019-01-18T06:58:59.066Z,0.60
2019-01-18T07:01:28.696Z,0.30
2019-01-18T07:03:58.983Z,0.40
2019-01-18T07:06:28.528Z,0.70
2019-01-18T07:08:58.101Z,0.33
2019-01-18T07:11:27.778Z,0.20
2019-01-18T07:13:57.419Z,0.30
2019-01-18T07:16:26.987Z,0.30
2019-01-18T07:18:56.664Z,0.63
2019-01-18T07:21:26.246Z,0.70
2019-01-18T07:23:55.878Z,0.27
2019-01-18T07:26:25.573Z,0.20
2019-01-18T07:28:55.208Z,0.30
2019-01-18T07:31:24.785Z,0.20
2019-01-18T07:33:54.461Z,0.40
2019-01-18T07:36:24.045Z,0.10
2019-01-18T07:38:53.654Z,0.30
2019-01-18T07:41:23.305Z,0.33
2019-01-18T07:43:52.942Z,0.30
2019-01-18T07:46:22.522Z,0.20
2019-01-18T07:48:52.426Z,0.20
2019-01-18T07:51:22.086Z,0.40
2019-01-18T07:53:51.679Z,0.40
2019-01-18T07:56:21.317Z,0.20
2019-01-18T07:58:50.990Z,0.37
2019-01-18T08:01:22.248Z,0.30
2019-01-18T08:03:51.972Z,0.20
2019-01-18T08:06:21.594Z,0.40
2019-01-18T08:08:51.227Z,0.30
2019-01-18T08:11:20.853Z,0.80
2019-01-18T08:13:50.427Z,0.30
2019-01-18T08:16:20.026Z,0.20
2019-01-18T08:18:49.674Z,0.17
2019-01-18T08:21:19.257Z,0.30
2019-01-18T08:23:48.860Z,0.30
2019-01-18T08:26:18.720Z,0.60
2019-01-18T08:28:48.636Z,0.60
2019-01-18T08:31:18.291Z,0.60
2019-01-18T08:33:47.907Z,0.90
2019-01-18T08:36:17.660Z,0.70
2019-01-18T08:38:47.301Z,0.40
2019-01-18T08:41:16.936Z,0.63
2019-01-18T08:43:46.589Z,0.50
2019-01-18T08:46:17.405Z,0.47
2019-01-18T08:48:47.033Z,0.40
2019-01-18T08:51:16.695Z,0.40
2019-01-18T08:53:46.325Z,0.47
2019-01-18T08:56:16.778Z,0.30
2019-01-18T08:58:46.563Z,0.47
2019-01-18T09:01:16.208Z,0.60
2019-01-18T09:03:45.916Z,0.40
2019-01-18T09:06:15.571Z,0.60
2019-01-18T09:08:45.223Z,0.60
2019-01-18T09:11:14.900Z,0.67
2019-01-18T09:13:44.546Z,0.30
2019-01-18T09:16:14.182Z,0.43
2019-01-18T09:18:47.849Z,0.30
2019-01-18T09:21:20.460Z,0.50
2019-01-18T09:23:53.669Z,0.30
2019-01-18T09:26:24.548Z,0.20
2019-01-18T09:28:55.334Z,0.20
2019-01-18T09:31:26.435Z,0.20
2019-01-18T09:33:58.195Z,0.20
2019-01-18T09:36:32.451Z,0.20
2019-01-18T09:39:07.224Z,0.40
2019-01-18T09:41:38.856Z,0.20
2019-01-18T09:44:17.603Z,0.10
2019-01-18T09:46:52.317Z,0.20
2019-01-18T09:49:27.371Z,0.30
2019-01-18T10:06:42.761Z,0.30
2019-01-18T10:09:15.742Z,0.20
2019-01-18T10:11:46.878Z,0.50
2019-01-18T10:14:20.237Z,0.40
2019-01-18T10:16:53.294Z,0.20
2019-01-18T10:19:28.000Z,0.60
2019-01-18T10:53:23.201Z,0.40
2019-01-18T10:55:56.722Z,1.07
2019-01-18T10:58:28.564Z,0.30
2019-01-18T11:01:12.173Z,0.23
2019-01-18T11:03:47.173Z,0.30
2019-01-18T11:06:20.244Z,0.60
2019-01-18T11:08:52.522Z,0.40
2019-01-18T11:11:24.945Z,0.30
2019-01-18T11:13:59.411Z,0.20
2019-01-18T11:16:32.389Z,0.33
2019-01-18T11:19:08.465Z,0.23
2019-01-18T11:21:41.755Z,0.40
2019-01-18T11:24:15.921Z,0.37
2019-01-18T11:26:47.703Z,0.50
2019-01-18T11:29:26.403Z,0.33
2019-01-18T11:31:58.605Z,0.37
2019-01-18T11:34:32.469Z,0.40
2019-01-18T11:37:13.446Z,0.50
2019-01-18T11:39:44.635Z,0.30
2019-01-18T11:42:14.177Z,0.40
2019-01-18T11:44:46.374Z,0.40
2019-01-18T11:47:17.627Z,0.20
2019-01-18T11:49:49.494Z,0.30
2019-01-18T11:52:19.570Z,0.23
2019-01-18T11:54:50.614Z,0.30
2019-01-18T11:57:21.097Z,0.37
2019-01-18T11:59:52.532Z,0.33
2019-01-18T12:02:22.902Z,0.40
2019-01-18T12:04:56.028Z,0.20
2019-01-18T12:07:25.690Z,0.30
2019-01-18T12:09:55.804Z,0.20
2019-01-18T12:12:25.507Z,0.30
2019-01-18T12:14:55.115Z,0.30
2019-01-18T12:17:24.739Z,0.40
2019-01-18T12:19:54.397Z,0.20
2019-01-18T12:22:24.049Z,0.30
2019-01-18T12:24:53.780Z,0.30
2019-01-18T12:27:23.440Z,0.43
2019-01-18T12:29:53.154Z,0.40
2019-01-18T12:32:28.608Z,0.43
2019-01-18T12:34:54.140Z,0.27
2019-01-18T12:37:24.063Z,0.23
2019-01-18T12:39:53.726Z,0.20
2019-01-18T12:42:23.306Z,0.27
2019-01-18T12:44:53.043Z,0.37
2019-01-18T12:47:26.137Z,0.47
2019-01-18T12:49:56.831Z,0.20
2019-01-18T12:52:26.488Z,0.20
2019-01-18T12:54:56.122Z,0.40
2019-01-18T12:57:25.735Z,0.30
2019-01-18T12:59:57.612Z,0.33
2019-01-18T13:02:27.468Z,0.70
2019-01-18T13:04:56.994Z,0.50
2019-01-18T13:07:26.677Z,0.40
2019-01-18T13:09:57.690Z,0.37
2019-01-18T13:12:33.213Z,0.80
2019-01-18T13:15:09.612Z,0.47
2019-01-18T13:17:39.215Z,0.27
2019-01-18T13:20:16.072Z,0.30
2019-01-18T13:22:47.864Z,0.40
2019-01-18T13:25:19.851Z,0.50
2019-01-18T13:27:50.785Z,0.50
2019-01-18T13:30:21.393Z,0.50
2019-01-18T13:32:51.918Z,0.63
2019-01-18T13:35:23.199Z,0.57
2019-01-18T13:37:52.795Z,0.60
2019-01-18T13:40:27.304Z,0.57
2019-01-18T13:43:01.324Z,0.57
2019-01-18T13:45:31.002Z,0.50
2019-01-18T13:48:00.738Z,0.50
2019-01-18T13:50:31.989Z,0.57
2019-01-18T13:53:03.077Z,0.40
2019-01-18T13:55:34.195Z,0.53
2019-01-18T13:58:05.875Z,0.50
2019-01-18T14:00:41.411Z,0.50
2019-01-18T14:03:12.226Z,0.80
2019-01-18T14:05:42.744Z,0.80
2019-01-18T14:08:13.717Z,0.50
2019-01-18T14:10:43.416Z,0.70
2019-01-18T14:13:13.210Z,0.70
2019-01-18T14:15:43.514Z,0.67
2019-01-18T14:18:14.412Z,0.60
2019-01-18T14:20:44.793Z,0.90
2019-01-18T14:23:14.497Z,0.40
2019-01-18T14:25:45.320Z,0.70
2019-01-18T14:28:15.619Z,0.47
2019-01-18T14:30:45.379Z,0.67
2019-01-18T14:33:15.119Z,0.60
2019-01-18T14:35:44.731Z,0.57
2019-01-18T14:38:16.245Z,0.67
2019-01-18T14:40:46.208Z,0.50
2019-01-18T14:43:15.805Z,0.87
2019-01-18T14:45:45.465Z,0.50
2019-01-18T14:48:16.480Z,0.73
2019-01-18T14:50:45.778Z,0.60
2019-01-18T14:53:18.056Z,0.50
2019-01-18T14:55:50.082Z,0.70
2019-01-18T14:58:24.665Z,0.80
2019-01-18T15:00:57.842Z,0.80
2019-01-18T15:03:28.039Z,0.70
2019-01-18T15:05:58.606Z,0.37
2019-01-18T15:08:28.901Z,0.53
2019-01-18T15:10:59.236Z,0.40
2019-01-18T15:13:28.792Z,0.50
2019-01-18T15:15:58.467Z,0.50
2019-01-18T15:18:32.844Z,0.60
2019-01-18T15:21:02.670Z,0.40
2019-01-18T15:23:36.241Z,0.63
2019-01-18T15:26:09.881Z,0.50
2019-01-18T15:28:42.362Z,0.77
2019-01-18T15:31:15.958Z,0.53
2019-01-18T15:33:49.958Z,0.40
2019-01-18T15:36:21.775Z,0.57
2019-01-18T15:38:57.125Z,0.60
2019-01-18T15:41:30.277Z,0.90
2019-01-18T15:43:59.850Z,0.73
2019-01-18T15:46:31.699Z,0.70
2019-01-18T15:49:01.305Z,0.70
2019-01-18T15:51:39.452Z,0.60
2019-01-18T15:54:09.165Z,0.67
2019-01-18T15:56:38.840Z,0.80
2019-01-18T15:59:08.355Z,0.80
2019-01-18T16:01:38.137Z,0.80
2019-01-18T16:06:38.519Z,0.50
2019-01-18T16:09:11.829Z,0.63
2019-01-18T16:11:43.867Z,0.63
2019-01-18T16:14:15.863Z,0.70
2019-01-18T16:16:59.031Z,0.60
2019-01-18T16:19:32.397Z,0.70
2019-01-18T16:22:03.288Z,0.57
2019-01-18T16:24:36.440Z,0.90
2019-01-18T16:27:12.632Z,0.53
2019-01-18T16:29:48.769Z,0.60
2019-01-18T16:32:19.277Z,0.60
2019-01-18T16:35:01.754Z,0.70
2019-01-18T16:37:34.723Z,0.97
2019-01-18T16:40:09.024Z,1.03
2019-01-18T16:42:42.886Z,1.33
2019-01-18T16:45:25.320Z,2.70
2019-01-18T16:47:51.831Z,1.90
2019-01-18T16:50:24.678Z,1.27
2019-01-18T16:53:00.573Z,1.50
2019-01-18T16:55:39.855Z,1.23
2019-01-18T16:58:10.335Z,1.00
2019-01-18T17:00:43.631Z,0.80
2019-01-18T17:03:15.701Z,0.90
2019-01-18T17:05:48.068Z,0.93
2019-01-18T17:11:09.103Z,0.97
2019-01-18T17:13:42.013Z,1.00
2019-01-18T17:16:14.447Z,0.90
2019-01-18T17:18:47.371Z,0.80
2019-01-18T17:21:20.759Z,0.87
2019-01-18T17:23:53.077Z,0.63
2019-01-18T17:26:38.358Z,0.80
2019-01-18T17:29:12.807Z,1.07
2019-01-18T17:31:42.325Z,0.60
2019-01-18T17:34:13.941Z,0.70
2019-01-18T17:37:07.528Z,0.90
2019-01-18T17:40:20.891Z,0.73
2019-01-18T17:43:46.380Z,0.90
2019-01-18T17:46:51.148Z,0.80
2019-01-18T17:50:16.621Z,1.40
2019-01-18T17:53:16.508Z,1.63
2019-01-18T17:56:20.217Z,2.57
2019-01-18T17:59:29.280Z,1.30
2019-01-18T18:02:30.464Z,1.40
2019-01-18T18:05:35.223Z,1.73
2019-01-18T18:08:19.902Z,1.50
2019-01-18T18:11:41.363Z,1.50
2019-01-18T18:14:53.859Z,1.50
2019-01-18T18:17:53.316Z,1.47
2019-01-18T18:21:10.378Z,1.60
2019-01-18T18:26:45.235Z,1.57
2019-01-18T18:29:54.131Z,1.80
2019-01-18T18:32:59.510Z,2.00
2019-01-18T18:36:03.844Z,1.77
2019-01-18T18:39:33.144Z,1.83
2019-01-18T18:42:39.451Z,1.60
2019-01-18T18:46:04.106Z,1.60
2019-01-18T18:49:10.797Z,1.50
2019-01-18T18:52:21.527Z,1.80
2019-01-18T18:55:14.583Z,1.00
2019-01-18T18:58:43.266Z,1.77
2019-01-18T19:01:55.676Z,1.40
2019-01-18T19:04:58.255Z,1.17
2019-01-18T19:08:06.133Z,1.20
2019-01-18T19:11:24.384Z,1.33
2019-01-18T19:14:18.002Z,1.10
2019-01-18T19:17:18.434Z,1.57
2019-01-18T19:20:18.803Z,1.30
2019-01-18T19:23:38.144Z,1.50
2019-01-18T19:27:04.903Z,1.77
2019-01-18T19:30:29.475Z,1.47
2019-01-18T19:34:04.349Z,1.40
2019-01-18T19:37:21.979Z,0.70
2019-01-18T19:40:20.484Z,1.17
2019-01-18T19:43:27.851Z,0.90
2019-01-18T19:46:39.589Z,1.03
2019-01-18T19:49:56.014Z,1.37
2019-01-18T19:53:03.851Z,1.00
2019-01-18T19:56:10.463Z,1.07
2019-01-18T19:59:04.032Z,1.10
2019-01-18T20:02:10.059Z,0.90
2019-01-18T20:05:21.794Z,0.90
2019-01-18T20:08:20.738Z,0.80
2019-01-18T20:11:55.453Z,1.07
2019-01-18T20:15:03.159Z,1.10
2019-01-18T20:18:13.817Z,1.00
2019-01-18T20:21:07.146Z,1.20
2019-01-18T20:24:23.613Z,0.93
2019-01-18T20:27:30.771Z,1.10
2019-01-18T20:31:00.326Z,0.90
2019-01-18T20:34:04.381Z,0.90
2019-01-18T20:37:22.833Z,1.10
2019-01-18T20:40:42.305Z,1.20
2019-01-18T20:47:20.620Z,1.27
2019-01-18T20:50:03.662Z,0.70
2019-01-18T20:52:57.204Z,0.80
2019-01-18T21:08:52.068Z,1.00
2019-01-18T21:11:42.405Z,1.20
2019-01-18T21:14:10.657Z,0.97
2019-01-18T21:17:24.295Z,0.90
2019-01-18T21:20:25.518Z,1.00
2019-01-18T21:23:32.075Z,0.90
2019-01-18T21:26:38.878Z,1.00
2019-01-18T21:29:59.247Z,0.93
2019-01-18T21:33:23.708Z,1.00
2019-01-18T21:36:25.737Z,1.00
2019-01-18T21:39:39.474Z,0.90
2019-01-18T21:43:01.756Z,0.90
2019-01-18T21:45:56.236Z,1.00
2019-01-18T21:48:46.411Z,1.03
2019-01-18T21:51:56.544Z,1.10
2019-01-18T21:55:15.324Z,1.00
2019-01-18T21:58:30.121Z,0.77
2019-01-18T22:01:42.106Z,0.70
2019-01-18T22:07:33.478Z,0.80
2019-01-18T22:10:43.938Z,0.90
2019-01-18T22:13:51.788Z,0.83
2019-01-18T22:16:52.671Z,1.00
2019-01-18T22:20:12.077Z,0.70
2019-01-18T22:23:20.176Z,0.70
2019-01-18T22:26:27.142Z,1.00
2019-01-18T22:29:38.925Z,1.00
2019-01-18T22:32:50.836Z,1.00
2019-01-18T22:36:10.276Z,0.80
2019-01-18T22:39:14.995Z,0.90
2019-01-18T22:42:25.335Z,0.93
2019-01-18T22:45:34.871Z,0.73
2019-01-18T22:48:44.622Z,0.83
2019-01-18T22:51:53.931Z,0.83
2019-01-18T22:55:06.744Z,0.90
2019-01-18T22:57:59.241Z,0.90
2019-01-18T23:01:06.101Z,1.00
2019-01-18T23:04:16.607Z,0.97
2019-01-18T23:07:35.689Z,1.00
2019-01-18T23:11:00.019Z,1.10
2019-01-18T23:14:04.428Z,1.10
2019-01-18T23:17:24.060Z,1.23
2019-01-18T23:20:42.496Z,1.13
2019-01-18T23:23:51.987Z,1.20
2019-01-18T23:27:29.048Z,1.30
2019-01-18T23:30:36.349Z,1.20
2019-01-18T23:33:41.290Z,1.20
2019-01-18T23:37:05.051Z,1.40
2019-01-18T23:40:14.388Z,1.33
2019-01-18T23:43:03.527Z,1.57
2019-01-18T23:46:15.179Z,1.60
2019-01-18T23:49:25.101Z,1.30
2019-01-18T23:52:29.013Z,1.37
2019-01-18T23:55:54.421Z,1.30
2019-01-18T23:59:19.901Z,1.50
